sensor_id;sensor_type;location;lat;lon;timestamp;temperature;humidity
17178;DHT22;8704;52.006;4.374;2022-12-07T00:01:18;4.50;99.90
17178;DHT22;8704;52.006;4.374;2022-12-07T00:03:47;4.50;99.90
17178;DHT22;8704;52.006;4.374;2022-12-07T00:06:17;4.40;99.90
17178;DHT22;8704;52.006;4.374;2022-12-07T00:08:46;4.40;99.90
17178;DHT22;8704;52.006;4.374;2022-12-07T00:11:18;4.30;99.90
17178;DHT22;8704;52.006;4.374;2022-12-07T00:13:47;4.30;99.90
17178;DHT22;8704;52.006;4.374;2022-12-07T00:16:20;4.20;99.90
17178;DHT22;8704;52.006;4.374;2022-12-07T00:18:49;4.20;99.90
17178;DHT22;8704;52.006;4.374;2022-12-07T00:21:19;4.10;99.90
17178;DHT22;8704;52.006;4.374;2022-12-07T00:23:49;4.10;99.90
17178;DHT22;8704;52.006;4.374;2022-12-07T00:26:20;4.00;99.90
17178;DHT22;8704;52.006;4.374;2022-12-07T00:28:49;4.00;99.90
17178;DHT22;8704;52.006;4.374;2022-12-07T00:31:20;4.00;99.90
17178;DHT22;8704;52.006;4.374;2022-12-07T00:33:49;3.90;99.90
17178;DHT22;8704;52.006;4.374;2022-12-07T00:36:18;3.90;99.90
17178;DHT22;8704;52.006;4.374;2022-12-07T00:38:53;3.80;99.90
17178;DHT22;8704;52.006;4.374;2022-12-07T00:41:23;3.80;99.90
17178;DHT22;8704;52.006;4.374;2022-12-07T00:43:52;3.70;99.90
17178;DHT22;8704;52.006;4.374;2022-12-07T00:46:20;3.70;99.90
17178;DHT22;8704;52.006;4.374;2022-12-07T00:48:49;3.60;99.90
17178;DHT22;8704;52.006;4.374;2022-12-07T00:51:19;3.60;99.90
17178;DHT22;8704;52.006;4.374;2022-12-07T00:53:48;3.60;99.90
17178;DHT22;8704;52.006;4.374;2022-12-07T00:56:17;3.50;99.90
17178;DHT22;8704;52.006;4.374;2022-12-07T00:58:52;3.50;99.90
17178;DHT22;8704;52.006;4.374;2022-12-07T01:01:20;3.50;99.90
17178;DHT22;8704;52.006;4.374;2022-12-07T01:03:48;3.40;99.90
17178;DHT22;8704;52.006;4.374;2022-12-07T01:06:18;3.40;99.90
17178;DHT22;8704;52.006;4.374;2022-12-07T01:08:46;3.30;99.90
17178;DHT22;8704;52.006;4.374;2022-12-07T01:11:17;3.30;99.90
17178;DHT22;8704;52.006;4.374;2022-12-07T01:13:45;3.30;99.90
17178;DHT22;8704;52.006;4.374;2022-12-07T01:16:16;4.10;99.90
17178;DHT22;8704;52.006;4.374;2022-12-07T01:18:46;3.20;99.90
17178;DHT22;8704;52.006;4.374;2022-12-07T01:21:17;3.50;99.90
17178;DHT22;8704;52.006;4.374;2022-12-07T01:23:45;3.30;99.90
17178;DHT22;8704;52.006;4.374;2022-12-07T01:26:15;3.20;99.90
17178;DHT22;8704;52.006;4.374;2022-12-07T01:28:43;3.20;99.90
17178;DHT22;8704;52.006;4.374;2022-12-07T01:31:14;3.20;99.90
17178;DHT22;8704;52.006;4.374;2022-12-07T01:33:44;3.10;99.90
17178;DHT22;8704;52.006;4.374;2022-12-07T01:36:15;3.60;99.90
17178;DHT22;8704;52.006;4.374;2022-12-07T01:38:44;3.20;99.90
17178;DHT22;8704;52.006;4.374;2022-12-07T01:41:12;3.10;99.90
17178;DHT22;8704;52.006;4.374;2022-12-07T01:44:09;3.20;99.90
17178;DHT22;8704;52.006;4.374;2022-12-07T01:46:39;3.20;99.90
17178;DHT22;8704;52.006;4.374;2022-12-07T01:49:10;3.60;99.90
17178;DHT22;8704;52.006;4.374;2022-12-07T01:51:41;3.50;99.90
17178;DHT22;8704;52.006;4.374;2022-12-07T01:54:11;3.50;99.90
17178;DHT22;8704;52.006;4.374;2022-12-07T01:56:44;3.40;99.90
17178;DHT22;8704;52.006;4.374;2022-12-07T01:59:13;3.60;99.90
17178;DHT22;8704;52.006;4.374;2022-12-07T02:01:43;3.50;99.90
17178;DHT22;8704;52.006;4.374;2022-12-07T02:04:12;3.70;99.90
17178;DHT22;8704;52.006;4.374;2022-12-07T02:06:41;3.50;99.90
17178;DHT22;8704;52.006;4.374;2022-12-07T02:09:10;3.50;99.90
17178;DHT22;8704;52.006;4.374;2022-12-07T02:11:39;3.50;99.90
17178;DHT22;8704;52.006;4.374;2022-12-07T02:14:07;3.50;99.90
17178;DHT22;8704;52.006;4.374;2022-12-07T02:16:42;3.40;99.90
17178;DHT22;8704;52.006;4.374;2022-12-07T02:22:42;3.40;99.90
17178;DHT22;8704;52.006;4.374;2022-12-07T02:25:22;3.40;99.90
17178;DHT22;8704;52.006;4.374;2022-12-07T02:28:01;3.30;99.90
17178;DHT22;8704;52.006;4.374;2022-12-07T02:30:35;3.30;99.90
17178;DHT22;8704;52.006;4.374;2022-12-07T02:33:13;3.30;99.90
17178;DHT22;8704;52.006;4.374;2022-12-07T02:35:46;3.20;99.90
17178;DHT22;8704;52.006;4.374;2022-12-07T02:38:19;3.20;99.90
17178;DHT22;8704;52.006;4.374;2022-12-07T02:40:50;3.60;99.90
17178;DHT22;8704;52.006;4.374;2022-12-07T02:43:23;3.20;99.90
17178;DHT22;8704;52.006;4.374;2022-12-07T02:45:56;3.20;99.90
17178;DHT22;8704;52.006;4.374;2022-12-07T02:51:13;3.10;99.90
17178;DHT22;8704;52.006;4.374;2022-12-07T02:53:42;3.10;99.90
17178;DHT22;8704;52.006;4.374;2022-12-07T02:56:17;3.20;99.90
17178;DHT22;8704;52.006;4.374;2022-12-07T02:58:57;3.40;99.90
17178;DHT22;8704;52.006;4.374;2022-12-07T03:01:37;3.50;99.90
17178;DHT22;8704;52.006;4.374;2022-12-07T03:04:14;3.50;99.90
17178;DHT22;8704;52.006;4.374;2022-12-07T03:06:50;3.60;99.90
17178;DHT22;8704;52.006;4.374;2022-12-07T03:09:28;3.60;99.90
17178;DHT22;8704;52.006;4.374;2022-12-07T03:12:02;3.60;99.90
17178;DHT22;8704;52.006;4.374;2022-12-07T03:14:36;3.60;99.90
17178;DHT22;8704;52.006;4.374;2022-12-07T03:17:08;3.60;99.90
17178;DHT22;8704;52.006;4.374;2022-12-07T03:19:40;3.60;99.90
17178;DHT22;8704;52.006;4.374;2022-12-07T03:22:10;3.50;99.90
17178;DHT22;8704;52.006;4.374;2022-12-07T03:24:42;3.50;99.90
17178;DHT22;8704;52.006;4.374;2022-12-07T03:27:18;3.50;99.90
17178;DHT22;8704;52.006;4.374;2022-12-07T03:29:51;3.50;99.90
17178;DHT22;8704;52.006;4.374;2022-12-07T03:32:28;3.60;99.90
17178;DHT22;8704;52.006;4.374;2022-12-07T03:35:01;3.60;99.90
17178;DHT22;8704;52.006;4.374;2022-12-07T03:37:33;3.60;99.90
17178;DHT22;8704;52.006;4.374;2022-12-07T03:40:08;3.70;99.90
17178;DHT22;8704;52.006;4.374;2022-12-07T03:42:38;3.80;99.90
17178;DHT22;8704;52.006;4.374;2022-12-07T03:45:07;3.70;99.90
17178;DHT22;8704;52.006;4.374;2022-12-07T03:47:43;3.80;99.90
17178;DHT22;8704;52.006;4.374;2022-12-07T03:50:17;4.20;99.90
17178;DHT22;8704;52.006;4.374;2022-12-07T03:52:52;3.70;99.90
17178;DHT22;8704;52.006;4.374;2022-12-07T03:55:26;3.60;99.90
17178;DHT22;8704;52.006;4.374;2022-12-07T03:58:02;3.60;99.90
17178;DHT22;8704;52.006;4.374;2022-12-07T04:00:31;3.60;99.90
17178;DHT22;8704;52.006;4.374;2022-12-07T04:03:01;4.60;99.90
17178;DHT22;8704;52.006;4.374;2022-12-07T04:05:29;4.50;99.90
17178;DHT22;8704;52.006;4.374;2022-12-07T04:07:57;3.60;99.90
17178;DHT22;8704;52.006;4.374;2022-12-07T04:10:25;3.50;99.90
17178;DHT22;8704;52.006;4.374;2022-12-07T04:12:55;4.20;99.90
17178;DHT22;8704;52.006;4.374;2022-12-07T04:15:23;3.50;99.90
17178;DHT22;8704;52.006;4.374;2022-12-07T04:17:51;3.50;99.90
17178;DHT22;8704;52.006;4.374;2022-12-07T04:20:21;3.50;99.90
17178;DHT22;8704;52.006;4.374;2022-12-07T04:22:49;3.40;99.90
17178;DHT22;8704;52.006;4.374;2022-12-07T04:25:17;3.50;99.90
17178;DHT22;8704;52.006;4.374;2022-12-07T04:27:45;3.30;99.90
17178;DHT22;8704;52.006;4.374;2022-12-07T04:30:13;3.30;99.90
17178;DHT22;8704;52.006;4.374;2022-12-07T04:32:41;3.30;99.90
17178;DHT22;8704;52.006;4.374;2022-12-07T04:35:09;3.30;99.90
17178;DHT22;8704;52.006;4.374;2022-12-07T04:37:38;3.20;99.90
17178;DHT22;8704;52.006;4.374;2022-12-07T04:40:08;3.30;99.90
17178;DHT22;8704;52.006;4.374;2022-12-07T04:42:37;3.20;99.90
17178;DHT22;8704;52.006;4.374;2022-12-07T04:45:07;3.90;99.90
17178;DHT22;8704;52.006;4.374;2022-12-07T04:47:35;3.20;99.90
17178;DHT22;8704;52.006;4.374;2022-12-07T04:50:04;3.50;99.90
17178;DHT22;8704;52.006;4.374;2022-12-07T04:52:32;3.10;99.90
17178;DHT22;8704;52.006;4.374;2022-12-07T04:55:02;3.10;99.90
17178;DHT22;8704;52.006;4.374;2022-12-07T04:57:30;3.00;99.90
17178;DHT22;8704;52.006;4.374;2022-12-07T04:59:58;3.20;99.90
17178;DHT22;8704;52.006;4.374;2022-12-07T05:02:26;2.90;99.90
17178;DHT22;8704;52.006;4.374;2022-12-07T05:04:54;2.90;99.90
17178;DHT22;8704;52.006;4.374;2022-12-07T05:07:22;3.60;99.90
17178;DHT22;8704;52.006;4.374;2022-12-07T05:09:50;3.10;99.90
17178;DHT22;8704;52.006;4.374;2022-12-07T05:12:20;2.80;99.90
17178;DHT22;8704;52.006;4.374;2022-12-07T05:14:48;2.90;99.90
17178;DHT22;8704;52.006;4.374;2022-12-07T05:17:16;2.90;99.90
17178;DHT22;8704;52.006;4.374;2022-12-07T05:19:44;2.80;99.90
17178;DHT22;8704;52.006;4.374;2022-12-07T05:22:12;2.80;99.90
17178;DHT22;8704;52.006;4.374;2022-12-07T05:24:41;2.80;99.90
17178;DHT22;8704;52.006;4.374;2022-12-07T05:27:09;2.80;99.90
17178;DHT22;8704;52.006;4.374;2022-12-07T05:29:39;2.80;99.90
17178;DHT22;8704;52.006;4.374;2022-12-07T05:32:07;2.80;99.90
17178;DHT22;8704;52.006;4.374;2022-12-07T05:34:35;2.80;99.90
17178;DHT22;8704;52.006;4.374;2022-12-07T05:37:03;2.80;99.90
17178;DHT22;8704;52.006;4.374;2022-12-07T05:39:31;2.80;99.90
17178;DHT22;8704;52.006;4.374;2022-12-07T05:41:59;2.80;99.90
17178;DHT22;8704;52.006;4.374;2022-12-07T05:44:51;3.00;99.90
17178;DHT22;8704;52.006;4.374;2022-12-07T05:47:19;2.80;99.90
17178;DHT22;8704;52.006;4.374;2022-12-07T05:49:47;2.80;99.90
17178;DHT22;8704;52.006;4.374;2022-12-07T05:52:15;2.80;99.90
17178;DHT22;8704;52.006;4.374;2022-12-07T05:54:43;2.80;99.90
17178;DHT22;8704;52.006;4.374;2022-12-07T05:57:11;3.60;99.90
17178;DHT22;8704;52.006;4.374;2022-12-07T05:59:40;4.00;99.90
17178;DHT22;8704;52.006;4.374;2022-12-07T06:02:09;2.70;99.90
17178;DHT22;8704;52.006;4.374;2022-12-07T06:04:40;2.70;99.90
17178;DHT22;8704;52.006;4.374;2022-12-07T06:07:09;2.70;99.90
17178;DHT22;8704;52.006;4.374;2022-12-07T06:09:38;2.70;99.90
17178;DHT22;8704;52.006;4.374;2022-12-07T06:12:06;2.70;99.90
17178;DHT22;8704;52.006;4.374;2022-12-07T06:14:54;2.70;99.90
17178;DHT22;8704;52.006;4.374;2022-12-07T06:17:23;2.70;99.90
17178;DHT22;8704;52.006;4.374;2022-12-07T06:19:51;2.70;99.90
17178;DHT22;8704;52.006;4.374;2022-12-07T06:22:19;2.70;99.90
17178;DHT22;8704;52.006;4.374;2022-12-07T06:24:47;2.70;99.90
17178;DHT22;8704;52.006;4.374;2022-12-07T06:27:15;2.70;99.90
17178;DHT22;8704;52.006;4.374;2022-12-07T06:29:44;2.70;99.90
17178;DHT22;8704;52.006;4.374;2022-12-07T06:32:12;2.70;99.90
17178;DHT22;8704;52.006;4.374;2022-12-07T06:34:41;3.10;99.90
17178;DHT22;8704;52.006;4.374;2022-12-07T06:37:09;2.70;99.90
17178;DHT22;8704;52.006;4.374;2022-12-07T06:39:37;2.70;99.90
17178;DHT22;8704;52.006;4.374;2022-12-07T06:42:05;2.70;99.90
17178;DHT22;8704;52.006;4.374;2022-12-07T06:44:33;2.80;99.90
17178;DHT22;8704;52.006;4.374;2022-12-07T06:47:01;2.80;99.90
17178;DHT22;8704;52.006;4.374;2022-12-07T06:49:52;2.90;99.90
17178;DHT22;8704;52.006;4.374;2022-12-07T06:52:20;3.50;99.90
17178;DHT22;8704;52.006;4.374;2022-12-07T06:54:48;2.80;99.90
17178;DHT22;8704;52.006;4.374;2022-12-07T06:57:16;2.90;99.90
17178;DHT22;8704;52.006;4.374;2022-12-07T06:59:44;2.80;99.90
17178;DHT22;8704;52.006;4.374;2022-12-07T07:02:12;2.80;99.90
17178;DHT22;8704;52.006;4.374;2022-12-07T07:04:40;2.80;99.90
17178;DHT22;8704;52.006;4.374;2022-12-07T07:07:09;3.20;99.90
17178;DHT22;8704;52.006;4.374;2022-12-07T07:09:37;3.10;99.90
17178;DHT22;8704;52.006;4.374;2022-12-07T07:12:06;2.80;99.90
17178;DHT22;8704;52.006;4.374;2022-12-07T07:14:33;3.10;99.90
17178;DHT22;8704;52.006;4.374;2022-12-07T07:17:02;2.80;99.90
17178;DHT22;8704;52.006;4.374;2022-12-07T07:19:30;2.80;99.90
17178;DHT22;8704;52.006;4.374;2022-12-07T07:21:58;3.20;99.90
17178;DHT22;8704;52.006;4.374;2022-12-07T07:24:27;2.70;99.90
17178;DHT22;8704;52.006;4.374;2022-12-07T07:26:56;2.80;99.90
17178;DHT22;8704;52.006;4.374;2022-12-07T07:29:24;2.80;99.90
17178;DHT22;8704;52.006;4.374;2022-12-07T07:31:52;2.90;99.90
17178;DHT22;8704;52.006;4.374;2022-12-07T07:34:20;2.90;99.90
17178;DHT22;8704;52.006;4.374;2022-12-07T07:36:48;2.90;99.90
17178;DHT22;8704;52.006;4.374;2022-12-07T07:39:16;3.00;99.90
17178;DHT22;8704;52.006;4.374;2022-12-07T07:41:46;3.00;99.90
17178;DHT22;8704;52.006;4.374;2022-12-07T07:44:14;3.00;99.90
17178;DHT22;8704;52.006;4.374;2022-12-07T07:46:42;3.50;99.90
17178;DHT22;8704;52.006;4.374;2022-12-07T07:49:10;3.20;99.90
17178;DHT22;8704;52.006;4.374;2022-12-07T07:51:38;3.30;99.90
17178;DHT22;8704;52.006;4.374;2022-12-07T07:54:07;3.30;99.90
17178;DHT22;8704;52.006;4.374;2022-12-07T07:56:35;3.30;99.90
17178;DHT22;8704;52.006;4.374;2022-12-07T07:59:04;3.30;99.90
17178;DHT22;8704;52.006;4.374;2022-12-07T08:01:32;3.30;99.90
17178;DHT22;8704;52.006;4.374;2022-12-07T08:04:00;3.30;99.90
17178;DHT22;8704;52.006;4.374;2022-12-07T08:06:28;3.30;99.90
17178;DHT22;8704;52.006;4.374;2022-12-07T08:08:58;3.30;99.90
17178;DHT22;8704;52.006;4.374;2022-12-07T08:11:26;3.30;99.90
17178;DHT22;8704;52.006;4.374;2022-12-07T08:13:54;3.30;99.90
17178;DHT22;8704;52.006;4.374;2022-12-07T08:16:23;3.30;99.90
17178;DHT22;8704;52.006;4.374;2022-12-07T08:18:52;3.30;99.90
17178;DHT22;8704;52.006;4.374;2022-12-07T08:21:20;3.30;99.90
17178;DHT22;8704;52.006;4.374;2022-12-07T08:23:48;3.90;99.90
17178;DHT22;8704;52.006;4.374;2022-12-07T08:26:16;3.30;99.90
17178;DHT22;8704;52.006;4.374;2022-12-07T08:28:44;3.30;99.90
17178;DHT22;8704;52.006;4.374;2022-12-07T08:31:15;3.40;99.90
17178;DHT22;8704;52.006;4.374;2022-12-07T08:33:47;4.20;99.90
17178;DHT22;8704;52.006;4.374;2022-12-07T08:36:16;3.40;99.90
17178;DHT22;8704;52.006;4.374;2022-12-07T08:38:44;3.50;99.90
17178;DHT22;8704;52.006;4.374;2022-12-07T08:41:33;3.60;99.90
17178;DHT22;8704;52.006;4.374;2022-12-07T08:44:01;3.70;99.90
17178;DHT22;8704;52.006;4.374;2022-12-07T08:46:32;4.60;99.90
17178;DHT22;8704;52.006;4.374;2022-12-07T08:49:07;3.90;99.90
17178;DHT22;8704;52.006;4.374;2022-12-07T08:51:35;4.00;99.90
17178;DHT22;8704;52.006;4.374;2022-12-07T08:54:06;4.10;99.90
17178;DHT22;8704;52.006;4.374;2022-12-07T08:56:35;4.00;99.90
17178;DHT22;8704;52.006;4.374;2022-12-07T08:59:03;3.90;99.90
17178;DHT22;8704;52.006;4.374;2022-12-07T09:01:32;4.40;99.90
17178;DHT22;8704;52.006;4.374;2022-12-07T09:04:00;4.10;99.90
17178;DHT22;8704;52.006;4.374;2022-12-07T09:06:29;4.00;99.90
17178;DHT22;8704;52.006;4.374;2022-12-07T09:08:59;4.10;99.90
17178;DHT22;8704;52.006;4.374;2022-12-07T09:11:28;4.00;99.90
17178;DHT22;8704;52.006;4.374;2022-12-07T09:13:57;5.00;99.90
17178;DHT22;8704;52.006;4.374;2022-12-07T09:16:25;4.10;99.90
17178;DHT22;8704;52.006;4.374;2022-12-07T09:18:53;5.10;99.90
17178;DHT22;8704;52.006;4.374;2022-12-07T09:21:23;4.20;99.90
17178;DHT22;8704;52.006;4.374;2022-12-07T09:23:52;4.20;99.90
17178;DHT22;8704;52.006;4.374;2022-12-07T09:26:20;4.20;99.90
17178;DHT22;8704;52.006;4.374;2022-12-07T09:28:49;4.20;99.90
17178;DHT22;8704;52.006;4.374;2022-12-07T09:31:19;4.20;99.90
17178;DHT22;8704;52.006;4.374;2022-12-07T09:33:54;4.10;99.90
17178;DHT22;8704;52.006;4.374;2022-12-07T09:36:23;4.10;99.90
17178;DHT22;8704;52.006;4.374;2022-12-07T09:38:52;4.10;99.90
17178;DHT22;8704;52.006;4.374;2022-12-07T09:41:21;4.10;99.90
17178;DHT22;8704;52.006;4.374;2022-12-07T09:43:50;4.10;99.90
17178;DHT22;8704;52.006;4.374;2022-12-07T09:46:20;4.10;99.90
17178;DHT22;8704;52.006;4.374;2022-12-07T09:48:49;4.20;99.90
17178;DHT22;8704;52.006;4.374;2022-12-07T09:51:19;4.30;99.90
17178;DHT22;8704;52.006;4.374;2022-12-07T09:53:53;5.30;99.90
17178;DHT22;8704;52.006;4.374;2022-12-07T09:56:22;4.20;99.90
17178;DHT22;8704;52.006;4.374;2022-12-07T09:58:54;4.20;99.90
17178;DHT22;8704;52.006;4.374;2022-12-07T10:01:24;4.30;99.90
17178;DHT22;8704;52.006;4.374;2022-12-07T10:03:55;4.30;99.90
17178;DHT22;8704;52.006;4.374;2022-12-07T10:06:26;4.30;99.90
17178;DHT22;8704;52.006;4.374;2022-12-07T10:08:56;4.40;99.90
17178;DHT22;8704;52.006;4.374;2022-12-07T10:11:24;4.60;99.90
17178;DHT22;8704;52.006;4.374;2022-12-07T10:13:52;4.80;99.90
17178;DHT22;8704;52.006;4.374;2022-12-07T10:16:41;4.80;99.90
17178;DHT22;8704;52.006;4.374;2022-12-07T10:19:23;4.90;99.90
17178;DHT22;8704;52.006;4.374;2022-12-07T10:22:11;5.10;99.90
17178;DHT22;8704;52.006;4.374;2022-12-07T10:24:42;5.20;99.90
17178;DHT22;8704;52.006;4.374;2022-12-07T10:27:22;5.30;99.90
17178;DHT22;8704;52.006;4.374;2022-12-07T10:29:53;5.40;99.90
17178;DHT22;8704;52.006;4.374;2022-12-07T10:32:30;5.40;99.90
17178;DHT22;8704;52.006;4.374;2022-12-07T10:35:20;5.40;99.90
17178;DHT22;8704;52.006;4.374;2022-12-07T10:37:49;5.50;99.90
17178;DHT22;8704;52.006;4.374;2022-12-07T10:40:30;5.60;99.90
17178;DHT22;8704;52.006;4.374;2022-12-07T10:43:05;5.70;99.90
17178;DHT22;8704;52.006;4.374;2022-12-07T10:45:35;5.80;99.90
17178;DHT22;8704;52.006;4.374;2022-12-07T10:48:34;5.90;99.90
17178;DHT22;8704;52.006;4.374;2022-12-07T10:51:08;5.90;99.90
17178;DHT22;8704;52.006;4.374;2022-12-07T10:53:52;5.90;99.90
17178;DHT22;8704;52.006;4.374;2022-12-07T10:56:39;6.00;99.90
17178;DHT22;8704;52.006;4.374;2022-12-07T10:59:47;6.00;99.90
17178;DHT22;8704;52.006;4.374;2022-12-07T11:02:30;6.10;99.90
17178;DHT22;8704;52.006;4.374;2022-12-07T11:05:11;6.20;99.90
17178;DHT22;8704;52.006;4.374;2022-12-07T11:07:50;6.30;99.90
17178;DHT22;8704;52.006;4.374;2022-12-07T11:10:26;6.30;99.90
17178;DHT22;8704;52.006;4.374;2022-12-07T11:13:10;6.30;99.90
17178;DHT22;8704;52.006;4.374;2022-12-07T11:18:45;6.40;99.90
17178;DHT22;8704;52.006;4.374;2022-12-07T11:21:25;6.50;99.90
17178;DHT22;8704;52.006;4.374;2022-12-07T11:24:01;6.60;99.90
17178;DHT22;8704;52.006;4.374;2022-12-07T11:26:40;6.60;99.90
17178;DHT22;8704;52.006;4.374;2022-12-07T11:29:27;6.60;99.90
17178;DHT22;8704;52.006;4.374;2022-12-07T11:32:04;6.60;99.90
17178;DHT22;8704;52.006;4.374;2022-12-07T11:34:39;6.40;99.90
17178;DHT22;8704;52.006;4.374;2022-12-07T11:37:15;6.20;99.90
17178;DHT22;8704;52.006;4.374;2022-12-07T11:39:47;6.00;99.90
17178;DHT22;8704;52.006;4.374;2022-12-07T11:42:22;5.90;99.90
17178;DHT22;8704;52.006;4.374;2022-12-07T11:44:56;5.60;99.90
17178;DHT22;8704;52.006;4.374;2022-12-07T11:47:34;6.00;99.90
17178;DHT22;8704;52.006;4.374;2022-12-07T11:50:10;6.00;99.90
17178;DHT22;8704;52.006;4.374;2022-12-07T11:52:46;6.10;99.90
17178;DHT22;8704;52.006;4.374;2022-12-07T11:55:19;6.10;99.90
17178;DHT22;8704;52.006;4.374;2022-12-07T11:57:54;6.10;99.90
17178;DHT22;8704;52.006;4.374;2022-12-07T12:00:27;6.20;99.90
17178;DHT22;8704;52.006;4.374;2022-12-07T12:02:59;6.20;99.90
17178;DHT22;8704;52.006;4.374;2022-12-07T12:05:28;6.10;99.90
17178;DHT22;8704;52.006;4.374;2022-12-07T12:08:02;6.10;99.90
17178;DHT22;8704;52.006;4.374;2022-12-07T12:10:56;6.10;99.90
17178;DHT22;8704;52.006;4.374;2022-12-07T12:14:02;6.30;99.90
17178;DHT22;8704;52.006;4.374;2022-12-07T12:17:13;6.10;99.90
17178;DHT22;8704;52.006;4.374;2022-12-07T12:19:59;6.20;99.90
17178;DHT22;8704;52.006;4.374;2022-12-07T12:22:34;6.30;99.90
17178;DHT22;8704;52.006;4.374;2022-12-07T12:25:06;6.30;99.90
17178;DHT22;8704;52.006;4.374;2022-12-07T12:27:36;6.30;99.90
17178;DHT22;8704;52.006;4.374;2022-12-07T12:30:33;6.70;99.90
17178;DHT22;8704;52.006;4.374;2022-12-07T12:33:06;6.40;99.90
17178;DHT22;8704;52.006;4.374;2022-12-07T12:35:35;6.30;99.90
17178;DHT22;8704;52.006;4.374;2022-12-07T12:38:31;6.30;99.90
17178;DHT22;8704;52.006;4.374;2022-12-07T12:41:01;6.30;99.90
17178;DHT22;8704;52.006;4.374;2022-12-07T12:43:44;6.40;99.90
17178;DHT22;8704;52.006;4.374;2022-12-07T12:49:40;6.40;99.90
17178;DHT22;8704;52.006;4.374;2022-12-07T12:55:29;6.60;99.90
17178;DHT22;8704;52.006;4.374;2022-12-07T12:58:39;6.60;99.90
17178;DHT22;8704;52.006;4.374;2022-12-07T13:04:33;7.40;99.90
17178;DHT22;8704;52.006;4.374;2022-12-07T13:07:03;6.60;99.90
17178;DHT22;8704;52.006;4.374;2022-12-07T13:09:34;6.60;99.90
17178;DHT22;8704;52.006;4.374;2022-12-07T13:12:05;6.60;99.90
17178;DHT22;8704;52.006;4.374;2022-12-07T13:14:54;6.50;99.90
17178;DHT22;8704;52.006;4.374;2022-12-07T13:17:57;6.50;99.90
17178;DHT22;8704;52.006;4.374;2022-12-07T13:20:54;6.50;99.90
17178;DHT22;8704;52.006;4.374;2022-12-07T13:23:27;6.50;99.90
17178;DHT22;8704;52.006;4.374;2022-12-07T13:26:14;6.50;99.90
17178;DHT22;8704;52.006;4.374;2022-12-07T13:28:45;6.50;99.90
17178;DHT22;8704;52.006;4.374;2022-12-07T13:31:28;6.50;99.90
17178;DHT22;8704;52.006;4.374;2022-12-07T13:33:59;6.50;99.90
17178;DHT22;8704;52.006;4.374;2022-12-07T13:36:30;6.50;99.90
17178;DHT22;8704;52.006;4.374;2022-12-07T13:39:18;6.60;99.90
17178;DHT22;8704;52.006;4.374;2022-12-07T13:41:50;6.60;99.90
17178;DHT22;8704;52.006;4.374;2022-12-07T13:44:19;6.60;99.90
17178;DHT22;8704;52.006;4.374;2022-12-07T13:46:52;6.60;99.90
17178;DHT22;8704;52.006;4.374;2022-12-07T13:49:24;6.60;99.90
17178;DHT22;8704;52.006;4.374;2022-12-07T13:51:53;6.70;99.90
17178;DHT22;8704;52.006;4.374;2022-12-07T13:54:23;7.50;99.90
17178;DHT22;8704;52.006;4.374;2022-12-07T13:56:52;6.80;99.90
17178;DHT22;8704;52.006;4.374;2022-12-07T13:59:22;6.80;99.90
17178;DHT22;8704;52.006;4.374;2022-12-07T14:01:53;6.90;99.90
17178;DHT22;8704;52.006;4.374;2022-12-07T14:04:31;6.80;99.90
17178;DHT22;8704;52.006;4.374;2022-12-07T14:07:00;6.80;99.90
17178;DHT22;8704;52.006;4.374;2022-12-07T14:09:30;6.80;99.90
17178;DHT22;8704;52.006;4.374;2022-12-07T14:11:58;6.80;99.90
17178;DHT22;8704;52.006;4.374;2022-12-07T14:14:29;6.70;99.90
17178;DHT22;8704;52.006;4.374;2022-12-07T14:17:12;6.70;99.90
17178;DHT22;8704;52.006;4.374;2022-12-07T14:19:45;6.70;99.90
17178;DHT22;8704;52.006;4.374;2022-12-07T14:22:19;6.70;99.90
17178;DHT22;8704;52.006;4.374;2022-12-07T14:24:49;7.10;99.90
17178;DHT22;8704;52.006;4.374;2022-12-07T14:27:19;7.00;99.90
17178;DHT22;8704;52.006;4.374;2022-12-07T14:29:47;6.70;99.90
17178;DHT22;8704;52.006;4.374;2022-12-07T14:32:21;6.70;99.90
17178;DHT22;8704;52.006;4.374;2022-12-07T14:34:59;6.70;99.90
17178;DHT22;8704;52.006;4.374;2022-12-07T14:37:29;6.70;99.90
17178;DHT22;8704;52.006;4.374;2022-12-07T14:39:58;6.70;99.90
17178;DHT22;8704;52.006;4.374;2022-12-07T14:42:28;6.90;99.90
17178;DHT22;8704;52.006;4.374;2022-12-07T14:44:57;6.70;99.90
17178;DHT22;8704;52.006;4.374;2022-12-07T14:47:27;6.50;99.90
17178;DHT22;8704;52.006;4.374;2022-12-07T14:50:17;6.40;99.90
17178;DHT22;8704;52.006;4.374;2022-12-07T14:52:48;6.40;99.90
17178;DHT22;8704;52.006;4.374;2022-12-07T14:55:38;6.30;99.90
17178;DHT22;8704;52.006;4.374;2022-12-07T14:58:08;6.40;99.90
17178;DHT22;8704;52.006;4.374;2022-12-07T15:00:39;6.40;99.90
17178;DHT22;8704;52.006;4.374;2022-12-07T15:03:07;6.80;99.90
17178;DHT22;8704;52.006;4.374;2022-12-07T15:05:36;6.30;99.90
17178;DHT22;8704;52.006;4.374;2022-12-07T15:08:04;6.20;99.90
17178;DHT22;8704;52.006;4.374;2022-12-07T15:10:33;6.20;99.90
17178;DHT22;8704;52.006;4.374;2022-12-07T15:13:07;6.20;99.90
17178;DHT22;8704;52.006;4.374;2022-12-07T15:15:53;6.20;99.90
17178;DHT22;8704;52.006;4.374;2022-12-07T15:18:23;6.30;99.90
17178;DHT22;8704;52.006;4.374;2022-12-07T15:20:51;6.10;99.90
17178;DHT22;8704;52.006;4.374;2022-12-07T15:23:19;6.00;99.90
17178;DHT22;8704;52.006;4.374;2022-12-07T15:25:48;6.30;99.90
17178;DHT22;8704;52.006;4.374;2022-12-07T15:28:18;5.90;99.90
17178;DHT22;8704;52.006;4.374;2022-12-07T15:30:46;5.80;99.90
17178;DHT22;8704;52.006;4.374;2022-12-07T15:33:14;5.80;99.90
17178;DHT22;8704;52.006;4.374;2022-12-07T15:35:43;5.70;99.90
17178;DHT22;8704;52.006;4.374;2022-12-07T15:38:11;5.90;99.90
17178;DHT22;8704;52.006;4.374;2022-12-07T15:40:40;5.80;99.90
17178;DHT22;8704;52.006;4.374;2022-12-07T15:43:08;5.80;99.90
17178;DHT22;8704;52.006;4.374;2022-12-07T15:45:58;5.90;99.90
17178;DHT22;8704;52.006;4.374;2022-12-07T15:48:26;5.90;99.90
17178;DHT22;8704;52.006;4.374;2022-12-07T15:51:02;6.00;99.90
17178;DHT22;8704;52.006;4.374;2022-12-07T15:53:30;5.90;99.90
17178;DHT22;8704;52.006;4.374;2022-12-07T15:55:58;5.90;99.90
17178;DHT22;8704;52.006;4.374;2022-12-07T15:58:26;5.80;99.90
17178;DHT22;8704;52.006;4.374;2022-12-07T16:00:54;5.80;99.90
17178;DHT22;8704;52.006;4.374;2022-12-07T16:03:23;5.80;99.90
17178;DHT22;8704;52.006;4.374;2022-12-07T16:05:52;5.80;99.90
17178;DHT22;8704;52.006;4.374;2022-12-07T16:08:20;5.80;99.90
17178;DHT22;8704;52.006;4.374;2022-12-07T16:10:48;5.80;99.90
17178;DHT22;8704;52.006;4.374;2022-12-07T16:13:16;5.80;99.90
17178;DHT22;8704;52.006;4.374;2022-12-07T16:15:45;5.70;99.90
17178;DHT22;8704;52.006;4.374;2022-12-07T16:18:13;5.70;99.90
17178;DHT22;8704;52.006;4.374;2022-12-07T16:20:43;5.70;99.90
17178;DHT22;8704;52.006;4.374;2022-12-07T16:23:11;5.70;99.90
17178;DHT22;8704;52.006;4.374;2022-12-07T16:25:39;5.80;99.90
17178;DHT22;8704;52.006;4.374;2022-12-07T16:28:07;5.80;99.90
17178;DHT22;8704;52.006;4.374;2022-12-07T16:30:35;5.70;99.90
17178;DHT22;8704;52.006;4.374;2022-12-07T16:33:03;5.70;99.90
17178;DHT22;8704;52.006;4.374;2022-12-07T16:35:31;5.80;99.90
17178;DHT22;8704;52.006;4.374;2022-12-07T16:38:00;5.70;99.90
17178;DHT22;8704;52.006;4.374;2022-12-07T16:40:28;5.70;99.90
17178;DHT22;8704;52.006;4.374;2022-12-07T16:42:56;5.70;99.90
17178;DHT22;8704;52.006;4.374;2022-12-07T16:45:25;5.60;99.90
17178;DHT22;8704;52.006;4.374;2022-12-07T16:47:53;5.60;99.90
17178;DHT22;8704;52.006;4.374;2022-12-07T16:50:21;5.60;99.90
17178;DHT22;8704;52.006;4.374;2022-12-07T16:52:49;5.60;99.90